createdAt,value
2022-10-15T00:00:08.564Z,100.00
2022-10-15T00:02:35.100Z,100.00
2022-10-15T00:05:01.693Z,100.00
2022-10-15T00:07:29.173Z,100.00
2022-10-15T00:09:55.715Z,100.00
2022-10-15T00:12:22.165Z,100.00
2022-10-15T00:14:48.624Z,100.00
2022-10-15T00:17:15.116Z,100.00
2022-10-15T00:19:41.538Z,100.00
2022-10-15T00:22:07.969Z,100.00
2022-10-15T00:24:34.434Z,100.00
2022-10-15T00:27:00.911Z,100.00
2022-10-15T00:29:27.379Z,100.00
2022-10-15T00:31:54.659Z,100.00
2022-10-15T00:34:21.098Z,100.00
2022-10-15T00:36:50.528Z,100.00
2022-10-15T00:39:17.565Z,100.00
2022-10-15T00:41:44.407Z,100.00
2022-10-15T00:44:25.890Z,100.00
2022-10-15T00:47:01.749Z,100.00
2022-10-15T00:49:35.801Z,100.00
2022-10-15T00:52:03.659Z,100.00
2022-10-15T00:54:34.275Z,100.00
2022-10-15T00:57:01.295Z,100.00
2022-10-15T00:59:29.692Z,100.00
2022-10-15T01:01:56.169Z,100.00
2022-10-15T01:04:23.623Z,100.00
2022-10-15T01:06:50.077Z,100.00
2022-10-15T01:09:16.634Z,100.00
2022-10-15T01:11:47.395Z,100.00
2022-10-15T01:14:19.847Z,100.00
2022-10-15T01:16:49.500Z,100.00
2022-10-15T01:19:53.509Z,100.00
2022-10-15T01:23:00.533Z,100.00
2022-10-15T01:25:53.766Z,100.00
2022-10-15T01:28:51.496Z,100.00
2022-10-15T01:31:35.930Z,100.00
2022-10-15T01:34:07.853Z,100.00
2022-10-15T01:36:39.641Z,100.00
2022-10-15T01:39:27.790Z,100.00
2022-10-15T01:42:04.185Z,100.00
2022-10-15T01:44:36.191Z,100.00
2022-10-15T01:47:09.777Z,100.00
2022-10-15T01:49:42.391Z,100.00
2022-10-15T01:52:14.495Z,100.00
2022-10-15T01:54:41.425Z,100.00
2022-10-15T01:57:10.846Z,100.00
2022-10-15T01:59:37.335Z,100.00
2022-10-15T02:02:03.811Z,100.00
2022-10-15T02:04:31.839Z,100.00
2022-10-15T02:07:27.132Z,100.00
2022-10-15T02:10:31.694Z,100.00
2022-10-15T02:13:13.361Z,100.00
2022-10-15T02:16:00.388Z,100.00
2022-10-15T02:18:38.621Z,100.00
2022-10-15T02:21:14.523Z,100.00
2022-10-15T02:23:58.340Z,100.00
2022-10-15T02:26:27.897Z,100.00
2022-10-15T02:28:56.925Z,100.00
2022-10-15T02:31:24.253Z,100.00
2022-10-15T02:33:55.355Z,100.00
2022-10-15T02:36:22.162Z,100.00
2022-10-15T02:38:50.892Z,100.00
2022-10-15T02:41:18.558Z,100.00
2022-10-15T02:43:44.967Z,100.00
2022-10-15T02:46:14.342Z,100.00
2022-10-15T02:48:40.817Z,100.00
2022-10-15T02:51:07.699Z,100.00
2022-10-15T02:53:34.220Z,100.00
2022-10-15T02:56:00.717Z,100.00
2022-10-15T02:58:29.129Z,100.00
2022-10-15T03:00:55.666Z,100.00
2022-10-15T03:03:22.955Z,100.00
2022-10-15T03:05:49.657Z,100.00
2022-10-15T03:08:16.128Z,100.00
2022-10-15T03:10:42.559Z,100.00
2022-10-15T03:13:09.128Z,100.00
2022-10-15T03:15:36.792Z,100.00
2022-10-15T03:18:04.014Z,100.00
2022-10-15T03:20:30.530Z,100.00
2022-10-15T03:22:57.047Z,100.00
2022-10-15T03:25:23.503Z,100.00
2022-10-15T03:27:52.847Z,100.00
2022-10-15T03:30:19.868Z,100.00
2022-10-15T03:32:47.758Z,100.00
2022-10-15T03:35:14.628Z,100.00
2022-10-15T03:37:41.048Z,100.00
2022-10-15T03:40:11.964Z,100.00
2022-10-15T03:42:41.178Z,100.00
2022-10-15T03:45:08.404Z,100.00
2022-10-15T03:47:34.880Z,100.00
2022-10-15T03:50:01.398Z,100.00
2022-10-15T03:52:28.124Z,100.00
2022-10-15T03:54:54.532Z,100.00
2022-10-15T03:57:21.012Z,100.00
2022-10-15T03:59:47.451Z,100.00
2022-10-15T04:02:13.894Z,100.00
2022-10-15T04:04:40.330Z,100.00
2022-10-15T04:07:06.761Z,100.00
2022-10-15T04:09:33.242Z,100.00
2022-10-15T04:11:59.645Z,100.00
2022-10-15T04:14:26.191Z,100.00
2022-10-15T04:16:52.609Z,100.00
2022-10-15T04:19:19.076Z,100.00
2022-10-15T04:21:45.549Z,100.00
2022-10-15T04:24:12.000Z,100.00
2022-10-15T04:26:38.497Z,100.00
2022-10-15T04:29:05.147Z,100.00
2022-10-15T04:31:31.922Z,100.00
2022-10-15T04:33:58.385Z,100.00
2022-10-15T04:36:25.202Z,100.00
2022-10-15T04:38:52.657Z,100.00
2022-10-15T04:41:19.090Z,100.00
2022-10-15T04:43:45.539Z,100.00
2022-10-15T04:46:12.097Z,100.00
2022-10-15T04:48:42.152Z,100.00
2022-10-15T04:51:15.669Z,100.00
2022-10-15T04:53:42.461Z,100.00
2022-10-15T04:56:13.698Z,100.00
2022-10-15T04:58:40.124Z,100.00
2022-10-15T05:01:08.622Z,100.00
2022-10-15T05:03:38.444Z,100.00
2022-10-15T05:06:10.151Z,100.00
2022-10-15T05:08:36.996Z,100.00
2022-10-15T05:11:09.206Z,100.00
2022-10-15T05:13:36.250Z,100.00
2022-10-15T05:16:29.503Z,100.00
2022-10-15T05:19:01.761Z,100.00
2022-10-15T05:21:29.091Z,100.00
2022-10-15T05:23:55.646Z,100.00
2022-10-15T05:26:25.223Z,100.00
2022-10-15T05:28:52.303Z,100.00
2022-10-15T05:31:21.963Z,100.00
2022-10-15T05:33:49.974Z,100.00
2022-10-15T05:36:18.154Z,100.00
2022-10-15T05:38:48.973Z,100.00
2022-10-15T05:41:15.914Z,100.00
2022-10-15T05:43:42.502Z,100.00
2022-10-15T05:46:09.312Z,100.00
2022-10-15T05:48:35.744Z,100.00
2022-10-15T05:51:04.186Z,100.00
2022-10-15T05:53:31.029Z,100.00
2022-10-15T05:56:00.995Z,100.00
2022-10-15T05:58:32.110Z,100.00
2022-10-15T06:01:03.317Z,100.00
2022-10-15T06:03:30.203Z,100.00
2022-10-15T06:05:56.589Z,100.00
2022-10-15T06:08:23.561Z,100.00
2022-10-15T06:10:49.987Z,100.00
2022-10-15T06:13:16.583Z,100.00
2022-10-15T06:15:44.947Z,100.00
2022-10-15T06:18:15.839Z,100.00
2022-10-15T06:20:43.618Z,100.00
2022-10-15T06:23:11.914Z,100.00
2022-10-15T06:25:38.456Z,100.00
2022-10-15T06:28:06.624Z,100.00
2022-10-15T06:30:33.458Z,100.00
2022-10-15T06:32:59.980Z,100.00
2022-10-15T06:35:30.274Z,100.00
2022-10-15T06:38:02.900Z,100.00
2022-10-15T06:40:30.350Z,100.00
2022-10-15T06:43:04.255Z,100.00
2022-10-15T06:45:30.768Z,100.00
2022-10-15T06:47:57.223Z,100.00
2022-10-15T06:50:23.739Z,100.00
2022-10-15T06:52:50.213Z,100.00
2022-10-15T06:55:16.703Z,100.00
2022-10-15T06:57:43.123Z,100.00
2022-10-15T07:00:10.061Z,100.00
2022-10-15T07:02:36.535Z,100.00
2022-10-15T07:05:02.968Z,100.00
2022-10-15T07:07:29.409Z,100.00
2022-10-15T07:09:56.036Z,100.00
2022-10-15T07:12:22.869Z,100.00
2022-10-15T07:14:49.971Z,100.00
2022-10-15T07:17:16.915Z,100.00
2022-10-15T07:19:44.020Z,100.00
2022-10-15T07:22:10.916Z,100.00
2022-10-15T07:24:37.345Z,100.00
2022-10-15T07:27:08.154Z,100.00
2022-10-15T07:29:44.774Z,100.00
2022-10-15T07:32:11.241Z,100.00
2022-10-15T07:34:37.656Z,100.00
2022-10-15T07:37:04.072Z,99.98
2022-10-15T07:39:30.510Z,100.00
2022-10-15T07:41:56.975Z,99.26
2022-10-15T07:44:23.401Z,99.43
2022-10-15T07:46:49.826Z,97.52
2022-10-15T07:49:16.374Z,98.23
2022-10-15T07:51:43.191Z,98.25
2022-10-15T07:54:09.625Z,96.77
2022-10-15T07:56:36.051Z,96.91
2022-10-15T07:59:02.630Z,96.37
2022-10-15T08:01:29.120Z,96.71
2022-10-15T08:03:55.635Z,96.08
2022-10-15T08:06:22.219Z,95.48
2022-10-15T08:08:48.823Z,94.93
2022-10-15T08:11:16.645Z,95.77
2022-10-15T08:13:44.682Z,95.00
2022-10-15T08:16:14.625Z,95.95
2022-10-15T08:18:43.077Z,94.95
2022-10-15T08:21:11.262Z,95.94
2022-10-15T08:23:37.776Z,95.56
2022-10-15T08:26:04.833Z,93.26
2022-10-15T08:28:33.548Z,90.69
2022-10-15T08:31:05.199Z,91.83
2022-10-15T08:33:34.338Z,92.99
2022-10-15T08:36:00.838Z,93.97
2022-10-15T08:38:27.328Z,92.15
2022-10-15T08:40:56.029Z,91.85
2022-10-15T08:43:25.069Z,91.75
2022-10-15T08:45:56.019Z,90.80
2022-10-15T08:48:41.106Z,90.88
2022-10-15T08:51:17.057Z,91.09
2022-10-15T08:53:49.617Z,91.44
2022-10-15T08:56:20.731Z,91.96
2022-10-15T08:59:38.549Z,92.42
2022-10-15T09:02:22.614Z,92.37
2022-10-15T09:05:26.892Z,92.04
2022-10-15T09:08:20.684Z,92.92
2022-10-15T09:10:53.529Z,92.35
2022-10-15T09:13:30.368Z,92.77
2022-10-15T09:16:05.294Z,93.15
2022-10-15T09:18:35.226Z,92.70
2022-10-15T09:21:05.260Z,91.92
2022-10-15T09:23:35.708Z,91.80
2022-10-15T09:26:34.575Z,91.59
2022-10-15T09:29:24.845Z,91.94
2022-10-15T09:32:00.224Z,90.92
2022-10-15T09:34:42.066Z,90.35
2022-10-15T09:37:19.685Z,90.69
2022-10-15T09:40:01.235Z,89.74
2022-10-15T09:42:49.002Z,88.69
2022-10-15T09:45:16.070Z,87.85
2022-10-15T09:47:43.865Z,88.09
2022-10-15T09:50:13.272Z,87.17
2022-10-15T09:53:24.526Z,86.08
2022-10-15T09:56:01.034Z,87.53
2022-10-15T09:58:38.625Z,88.00
2022-10-15T10:01:17.839Z,87.18
2022-10-15T10:03:44.290Z,88.93
2022-10-15T10:06:13.658Z,89.02
2022-10-15T10:08:59.961Z,88.83
2022-10-15T10:11:44.131Z,90.04
2022-10-15T10:14:23.560Z,88.37
2022-10-15T10:17:26.213Z,88.33
2022-10-15T10:20:18.119Z,88.69
2022-10-15T10:22:51.538Z,88.23
2022-10-15T10:25:27.510Z,87.88
2022-10-15T10:27:56.110Z,88.91
2022-10-15T10:30:23.274Z,87.53
2022-10-15T10:33:00.230Z,87.49
2022-10-15T10:35:52.523Z,89.08
2022-10-15T10:38:38.852Z,87.66
2022-10-15T10:41:10.149Z,88.77
2022-10-15T10:43:39.646Z,86.61
2022-10-15T10:46:18.180Z,86.81
2022-10-15T10:48:50.096Z,87.61
2022-10-15T10:51:19.734Z,88.20
2022-10-15T10:53:57.071Z,88.21
2022-10-15T10:56:30.218Z,88.14
2022-10-15T10:59:01.860Z,89.10
2022-10-15T11:01:29.301Z,90.18
2022-10-15T11:03:56.281Z,90.95
2022-10-15T11:06:42.278Z,91.37
2022-10-15T11:09:08.743Z,92.00
2022-10-15T11:11:47.521Z,92.49
2022-10-15T11:14:25.946Z,92.70
2022-10-15T11:16:58.397Z,92.85
2022-10-15T11:20:20.975Z,92.41
2022-10-15T11:22:31.427Z,92.49
2022-10-15T11:25:21.827Z,92.25
2022-10-15T11:28:00.239Z,91.95
2022-10-15T11:30:34.805Z,90.97
2022-10-15T11:33:19.423Z,91.06
2022-10-15T11:36:09.485Z,89.34
2022-10-15T11:38:49.757Z,89.23
2022-10-15T11:41:34.417Z,89.61
2022-10-15T11:44:11.525Z,89.84
2022-10-15T11:46:44.116Z,88.62
2022-10-15T11:49:22.241Z,88.05
2022-10-15T11:52:12.806Z,88.77
2022-10-15T11:54:43.483Z,88.58
2022-10-15T11:57:14.963Z,87.83
2022-10-15T11:59:56.936Z,85.16
2022-10-15T12:02:29.224Z,86.09
2022-10-15T12:05:08.379Z,84.06
2022-10-15T12:07:41.776Z,84.04
2022-10-15T12:10:31.192Z,83.32
2022-10-15T12:13:36.411Z,82.55
2022-10-15T12:16:25.049Z,81.82
2022-10-15T12:18:57.335Z,81.91
2022-10-15T12:21:51.704Z,81.68
2022-10-15T12:24:39.809Z,81.54
2022-10-15T12:27:34.743Z,80.51
2022-10-15T12:30:03.970Z,81.54
2022-10-15T12:32:37.826Z,81.33
2022-10-15T12:35:18.658Z,82.23
2022-10-15T12:37:48.079Z,80.70
2022-10-15T12:40:26.772Z,81.21
2022-10-15T12:42:55.826Z,80.76
2022-10-15T12:45:40.298Z,80.76
2022-10-15T12:48:16.067Z,80.42
2022-10-15T12:50:43.316Z,80.53
2022-10-15T12:53:29.841Z,81.13
2022-10-15T12:56:24.294Z,81.38
2022-10-15T12:58:51.748Z,82.16
2022-10-15T13:01:18.212Z,84.00
2022-10-15T13:03:50.859Z,84.21
2022-10-15T13:06:20.065Z,84.70
2022-10-15T13:08:51.863Z,84.30
2022-10-15T13:11:30.410Z,84.46
2022-10-15T13:14:07.685Z,84.59
2022-10-15T13:16:35.640Z,83.44
2022-10-15T13:19:03.315Z,83.98
2022-10-15T13:21:57.682Z,82.86
2022-10-15T13:24:27.052Z,81.38
2022-10-15T13:26:55.827Z,81.35
2022-10-15T13:29:25.099Z,81.29
2022-10-15T13:31:54.564Z,81.13
2022-10-15T13:34:30.233Z,80.55
2022-10-15T13:36:59.554Z,80.44
2022-10-15T13:39:43.863Z,79.78
2022-10-15T13:42:13.329Z,79.68
2022-10-15T13:44:40.596Z,79.60
2022-10-15T13:47:27.881Z,79.41
2022-10-15T13:50:24.331Z,78.14
2022-10-15T13:53:12.200Z,78.61
2022-10-15T13:55:44.001Z,77.89
2022-10-15T13:58:27.745Z,77.21
2022-10-15T14:01:09.278Z,77.29
2022-10-15T14:03:38.570Z,78.21
2022-10-15T14:06:28.496Z,77.31
2022-10-15T14:09:14.195Z,77.88
2022-10-15T14:11:40.728Z,78.32
2022-10-15T14:14:36.271Z,78.03
2022-10-15T14:17:09.015Z,78.37
2022-10-15T14:19:38.485Z,78.86
2022-10-15T14:22:05.687Z,78.32
2022-10-15T14:24:40.137Z,78.77
2022-10-15T14:27:22.356Z,78.67
2022-10-15T14:29:51.561Z,78.84
2022-10-15T14:32:20.687Z,78.96
2022-10-15T14:34:48.120Z,79.43
2022-10-15T14:37:47.218Z,80.43
2022-10-15T14:40:18.281Z,81.58
2022-10-15T14:43:03.140Z,82.60
2022-10-15T14:45:42.021Z,84.20
2022-10-15T14:48:18.741Z,86.32
2022-10-15T14:50:45.435Z,87.05
2022-10-15T14:53:18.776Z,88.24
2022-10-15T14:56:06.706Z,89.92
2022-10-15T14:58:33.222Z,90.14
2022-10-15T15:01:05.267Z,88.33
2022-10-15T15:03:42.880Z,88.97
2022-10-15T15:06:09.656Z,88.88
2022-10-15T15:08:36.092Z,88.73
2022-10-15T15:11:05.450Z,89.01
2022-10-15T15:13:38.527Z,88.82
2022-10-15T15:16:05.409Z,90.53
2022-10-15T15:18:32.063Z,91.45
2022-10-15T15:21:02.435Z,92.05
2022-10-15T15:23:29.786Z,92.69
2022-10-15T15:25:56.265Z,91.50
2022-10-15T15:28:25.672Z,94.67
2022-10-15T15:30:59.974Z,95.71
2022-10-15T15:33:28.300Z,95.85
2022-10-15T15:36:03.613Z,95.59
2022-10-15T15:38:33.047Z,96.38
2022-10-15T15:41:20.287Z,96.45
2022-10-15T15:43:47.384Z,96.86
2022-10-15T15:46:14.533Z,97.29
2022-10-15T15:48:41.188Z,97.44
2022-10-15T15:51:19.638Z,97.35
2022-10-15T15:53:46.425Z,97.30
2022-10-15T15:56:13.336Z,96.66
2022-10-15T15:58:39.747Z,97.00
2022-10-15T16:01:06.299Z,96.01
2022-10-15T16:03:32.774Z,96.93
2022-10-15T16:05:59.375Z,95.60
2022-10-15T16:08:25.851Z,95.29
2022-10-15T16:10:52.358Z,95.27
2022-10-15T16:13:18.842Z,94.97
2022-10-15T16:15:45.467Z,94.46
2022-10-15T16:18:12.252Z,93.36
2022-10-15T16:20:44.957Z,92.96
2022-10-15T16:23:14.638Z,92.30
2022-10-15T16:25:41.562Z,91.54
2022-10-15T16:28:08.349Z,90.82
2022-10-15T16:30:34.990Z,90.78
2022-10-15T16:33:01.549Z,90.90
2022-10-15T16:35:28.059Z,90.66
2022-10-15T16:37:56.121Z,90.93
2022-10-15T16:40:22.979Z,90.99
2022-10-15T16:42:49.493Z,90.90
2022-10-15T16:45:16.053Z,90.80
2022-10-15T16:47:42.572Z,91.01
2022-10-15T16:50:09.606Z,90.49
2022-10-15T16:52:36.214Z,90.44
2022-10-15T16:55:05.277Z,89.94
2022-10-15T16:57:31.761Z,89.39
2022-10-15T16:59:58.308Z,89.50
2022-10-15T17:02:25.040Z,89.59
2022-10-15T17:04:51.755Z,89.11
2022-10-15T17:07:18.275Z,88.44
2022-10-15T17:09:46.336Z,87.90
2022-10-15T17:12:12.800Z,88.11
2022-10-15T17:14:39.291Z,87.51
2022-10-15T17:17:07.662Z,86.60
2022-10-15T17:19:35.079Z,86.46
2022-10-15T17:22:01.680Z,86.16
2022-10-15T17:24:28.164Z,86.14
2022-10-15T17:26:54.791Z,85.82
2022-10-15T17:29:22.998Z,85.30
2022-10-15T17:31:50.515Z,85.31
2022-10-15T17:34:18.099Z,84.68
2022-10-15T17:36:47.323Z,84.25
2022-10-15T17:39:18.839Z,84.18
2022-10-15T17:41:46.116Z,84.36
2022-10-15T17:44:12.971Z,84.23
2022-10-15T17:46:39.980Z,83.97
2022-10-15T17:49:07.901Z,84.22
2022-10-15T17:51:34.858Z,84.51
2022-10-15T17:54:02.142Z,84.76
2022-10-15T17:56:31.353Z,84.74
2022-10-15T17:58:59.306Z,84.86
2022-10-15T18:01:56.187Z,85.35
2022-10-15T18:04:17.168Z,86.05
2022-10-15T18:06:44.914Z,86.35
2022-10-15T18:09:11.514Z,87.10
2022-10-15T18:11:38.028Z,86.67
2022-10-15T18:14:04.528Z,87.48
2022-10-15T18:16:32.353Z,88.01
2022-10-15T18:18:58.968Z,88.92
2022-10-15T18:21:27.422Z,89.37
2022-10-15T18:23:56.475Z,90.77
2022-10-15T18:26:23.839Z,90.37
2022-10-15T18:28:52.727Z,92.27
2022-10-15T18:31:19.944Z,92.88
2022-10-15T18:33:51.774Z,93.41
2022-10-15T18:36:24.763Z,93.40
2022-10-15T18:38:51.730Z,92.71
2022-10-15T18:41:19.798Z,94.19
2022-10-15T18:43:52.276Z,94.44
2022-10-15T18:46:19.138Z,94.21
2022-10-15T18:48:45.717Z,94.29
2022-10-15T18:51:12.541Z,94.21
2022-10-15T18:53:40.093Z,94.26
2022-10-15T18:56:08.007Z,93.34
2022-10-15T18:58:34.741Z,94.36
2022-10-15T19:01:13.268Z,93.18
2022-10-15T19:03:40.243Z,94.42
2022-10-15T19:06:06.688Z,93.85
2022-10-15T19:08:34.044Z,93.91
2022-10-15T19:11:06.041Z,94.36
2022-10-15T19:13:32.522Z,94.13
2022-10-15T19:16:01.824Z,93.49
2022-10-15T19:18:28.899Z,94.88
2022-10-15T19:20:55.356Z,95.17
2022-10-15T19:23:22.314Z,95.01
2022-10-15T19:25:48.759Z,94.92
2022-10-15T19:28:15.438Z,94.06
2022-10-15T19:30:42.013Z,95.75
2022-10-15T19:33:08.608Z,94.82
2022-10-15T19:35:41.892Z,94.86
2022-10-15T19:38:08.351Z,94.99
2022-10-15T19:40:38.842Z,95.98
2022-10-15T19:43:06.303Z,96.21
2022-10-15T19:45:43.549Z,95.83
2022-10-15T19:48:15.988Z,95.10
2022-10-15T19:50:44.688Z,94.84
2022-10-15T19:53:13.609Z,94.75
2022-10-15T19:55:40.411Z,95.48
2022-10-15T19:58:07.542Z,95.59
2022-10-15T20:00:34.495Z,95.16
2022-10-15T20:03:01.292Z,94.84
2022-10-15T20:05:27.827Z,94.78
2022-10-15T20:07:54.300Z,94.79
2022-10-15T20:10:25.565Z,94.79
2022-10-15T20:12:52.591Z,94.88
2022-10-15T20:15:19.067Z,94.47
2022-10-15T20:17:46.810Z,95.13
2022-10-15T20:20:13.358Z,95.00
2022-10-15T20:22:39.894Z,95.20
2022-10-15T20:25:06.604Z,95.05
2022-10-15T20:27:33.070Z,95.27
2022-10-15T20:29:59.545Z,95.35
2022-10-15T20:32:41.458Z,95.11
2022-10-15T20:35:08.767Z,95.12
2022-10-15T20:37:35.224Z,95.43
2022-10-15T20:40:01.699Z,95.28
2022-10-15T20:42:28.450Z,95.63
2022-10-15T20:44:55.138Z,96.17
2022-10-15T20:47:24.045Z,96.24
2022-10-15T20:49:53.486Z,96.76
2022-10-15T20:52:23.425Z,96.37
2022-10-15T20:54:51.281Z,96.31
2022-10-15T20:57:17.903Z,96.37
2022-10-15T20:59:44.365Z,96.56
2022-10-15T21:02:10.836Z,96.71
2022-10-15T21:04:37.325Z,96.79
2022-10-15T21:07:03.767Z,96.90
2022-10-15T21:09:30.200Z,97.98
2022-10-15T21:11:56.744Z,97.52
2022-10-15T21:14:23.724Z,98.45
2022-10-15T21:16:50.164Z,98.04
2022-10-15T21:19:16.707Z,97.78
2022-10-15T21:21:43.239Z,97.22
2022-10-15T21:24:09.678Z,97.37
2022-10-15T21:26:36.434Z,97.15
2022-10-15T21:29:03.441Z,97.05
2022-10-15T21:31:30.122Z,96.93
2022-10-15T21:33:57.137Z,96.75
2022-10-15T21:36:26.529Z,96.56
2022-10-15T21:38:58.930Z,96.84
2022-10-15T21:41:28.219Z,96.81
2022-10-15T21:43:54.891Z,96.77
2022-10-15T21:46:21.374Z,96.62
2022-10-15T21:48:47.910Z,97.29
2022-10-15T21:51:23.904Z,96.99
2022-10-15T21:53:50.920Z,97.11
2022-10-15T21:56:17.807Z,97.71
2022-10-15T21:58:44.664Z,97.49
2022-10-15T22:01:17.163Z,97.61
2022-10-15T22:03:46.040Z,97.30
2022-10-15T22:06:13.707Z,97.89
2022-10-15T22:08:40.514Z,97.62
2022-10-15T22:11:21.935Z,97.62
2022-10-15T22:13:51.906Z,97.65
2022-10-15T22:16:19.419Z,97.86
2022-10-15T22:18:46.220Z,97.96
2022-10-15T22:21:15.929Z,97.88
2022-10-15T22:23:48.346Z,97.94
2022-10-15T22:26:16.490Z,97.75
2022-10-15T22:28:44.891Z,97.57
2022-10-15T22:31:14.756Z,97.42
2022-10-15T22:33:41.748Z,97.71
2022-10-15T22:36:13.803Z,97.60
2022-10-15T22:38:41.438Z,97.64
2022-10-15T22:41:09.854Z,97.93
2022-10-15T22:43:36.824Z,98.19
2022-10-15T22:46:04.342Z,98.14
2022-10-15T22:48:35.706Z,98.51
2022-10-15T22:51:03.287Z,98.45
2022-10-15T22:53:30.329Z,98.40
2022-10-15T22:56:05.051Z,99.66
2022-10-15T22:58:32.674Z,99.63
2022-10-15T23:01:11.235Z,99.29
2022-10-15T23:03:38.905Z,99.09
2022-10-15T23:06:05.821Z,98.00
2022-10-15T23:08:34.201Z,97.93
2022-10-15T23:11:11.800Z,97.45
2022-10-15T23:13:39.894Z,96.99
2022-10-15T23:16:16.047Z,96.54
2022-10-15T23:18:43.767Z,96.17
2022-10-15T23:21:18.688Z,96.18
2022-10-15T23:23:45.695Z,96.17
2022-10-15T23:26:14.199Z,95.88
2022-10-15T23:28:41.104Z,95.53
2022-10-15T23:31:07.739Z,95.41
2022-10-15T23:33:34.628Z,95.60
2022-10-15T23:36:04.081Z,95.18
2022-10-15T23:38:31.170Z,94.93
2022-10-15T23:41:05.192Z,94.91
2022-10-15T23:43:31.874Z,94.85
2022-10-15T23:45:59.221Z,94.97
2022-10-15T23:48:25.820Z,94.87
2022-10-15T23:50:52.795Z,94.84
2022-10-15T23:53:19.793Z,94.79
2022-10-15T23:55:47.266Z,94.78
2022-10-15T23:58:14.364Z,94.84
